Terminal Aerodrome Forecast
Issued by NWS Boston, MA

Home | Current Version | Previous Version | Text Only | Print | Product List | Glossary On
Versions: 1 2 3 4 5 6 7 8 9 10 11 12 13 14 15 16 17 18
000
FTUS41 KBOX 220529
TAFORH
TAF
KORH 220529Z 2206/2306 03013G22KT P6SM BKN050
     FM221300 02012G24KT P6SM BKN025
     FM222000 02011G24KT P6SM VCSH BKN020
     FM230000 02012KT P6SM BKN020=

USA.gov is the U.S. government's official web portal to all federal, state and local government web resources and services.